RJAA Airport Information

Runway Information
Runway 16L Length 7152 ft width 196 ft
Elevation 135 ft Threshold 190 ft Heading 150
Runway 34R Length 7152 ft Width 196 ft
Elevation 141 ft Threshold 190 ft Heading 330
Runway 16R Length 13123 ft width 196 ft
Elevation 130 ft Threshold 0 ft Heading 150
Runway 34L Length 13123 ft Width 196 ft
Elevation 139 ft Threshold 2460 ft Heading 330
Airport Frequencies
Type APP Name TOKYO APP Frequency 124.4 MHZ
Type ATIS Name ATIS Frequency 128.25 MHZ
Type CLD Name CLNC DEL Frequency 121.9 MHZ
Type CLR Name CLNC DEL Frequency 121.65 MHZ
Type DEP Name TOKYO DEP Frequency 124.2 MHZ
Type GND Name Frequency 121.85 MHZ
Type GND Name GND Frequency 121.95 MHZ
Type RDR Name TOKYO RDR Frequency 120.2 MHZ
Type RMP Name RAMP Frequency 121.6 MHZ
Type RMP Name RAMP Frequency 121.75 MHZ
Type TCA Name TOKYO TCA Frequency 119.45 MHZ
Type TWR Name TWR Frequency 118.2 MHZ
Type TWR Name Frequency 118.35 MHZ
Airport Navaids
Type VOR-DME Name Narita Frequency 117900 KHZ
Type VOR-DME Name Sakura Frequency 112700 KHZ
Airport Weather Information & NOTAM
ADDS - METARS form results

(1724 UTC 17 May 2022)
Data provider http://aviationweather.gov/metar/data/
 
METAR text: RJAA 171709Z AUTO 23001KT 0200 R16R/0450VP2000D R16L/0375V0600N FG NSC 12/12 Q1017 RMK A3005
Conditions at: RJAA (NARITA INTL , JP) observed 1709 UTC 17 May 2022
Temperature: 12.0°C (54°F)
Dewpoint: 12.0°C (54°F) [RH = 100%]
Pressure (altimeter): 30.03 inches Hg (1017.0 mb)
Winds: from the SW (230 degrees) at 1 MPH (1 knots; 0.5 m/s)
Visibility: 0.12 miles (0.19 km)
Ceiling: at least 12,000 feet AGL
Clouds: sky clear below 12,000 feet AGL
Weather: FG  (fog)

METAR text: RJAA 171708Z AUTO 23001KT 0200 R16R/0450VP2000D R16L/0375V0600N FG NSC 13/13 Q1017 RMK A3005
Conditions at: RJAA (NARITA INTL , JP) observed 1708 UTC 17 May 2022
Temperature: 13.0°C (55°F)
Dewpoint: 13.0°C (55°F) [RH = 100%]
Pressure (altimeter): 30.03 inches Hg (1017.0 mb)
Winds: from the SW (230 degrees) at 1 MPH (1 knots; 0.5 m/s)
Visibility: 0.12 miles (0.19 km)
Ceiling: at least 12,000 feet AGL
Clouds: sky clear below 12,000 feet AGL
Weather: FG  (fog)

METAR text: RJAA 171707Z AUTO 23001KT 0200 R16R/0450VP2000D R16L/0375V0650D FG NSC 13/13 Q1017 RMK A3005
Conditions at: RJAA (NARITA INTL , JP) observed 1707 UTC 17 May 2022
Temperature: 13.0°C (55°F)
Dewpoint: 13.0°C (55°F) [RH = 100%]
Pressure (altimeter): 30.03 inches Hg (1017.0 mb)
Winds: from the SW (230 degrees) at 1 MPH (1 knots; 0.5 m/s)
Visibility: 0.12 miles (0.19 km)
Ceiling: at least 12,000 feet AGL
Clouds: sky clear below 12,000 feet AGL
Weather: FG  (fog)

METAR text: RJAA 171704Z AUTO 24001KT 0200 R16R/0700VP2000D R16L/0375V0650N FG NSC 12/12 Q1017 RMK A3005
Conditions at: RJAA (NARITA INTL , JP) observed 1704 UTC 17 May 2022
Temperature: 12.0°C (54°F)
Dewpoint: 12.0°C (54°F) [RH = 100%]
Pressure (altimeter): 30.03 inches Hg (1017.0 mb)
Winds: from the WSW (240 degrees) at 1 MPH (1 knots; 0.5 m/s)
Visibility: 0.12 miles (0.19 km)
Ceiling: at least 12,000 feet AGL
Clouds: sky clear below 12,000 feet AGL
Weather: FG  (fog)

METAR text: RJAA 171702Z AUTO 24002KT 0200 R16R/0700VP2000D R16L/0375V0650N FG NSC 12/12 Q1017 RMK A3005
Conditions at: RJAA (NARITA INTL , JP) observed 1702 UTC 17 May 2022
Temperature: 12.0°C (54°F)
Dewpoint: 12.0°C (54°F) [RH = 100%]
Pressure (altimeter): 30.03 inches Hg (1017.0 mb)
Winds: from the WSW (240 degrees) at 2 MPH (2 knots; 1.0 m/s)
Visibility: 0.12 miles (0.19 km)
Ceiling: at least 12,000 feet AGL
Clouds: sky clear below 12,000 feet AGL
Weather: FG  (fog)

METAR text: RJAA 171700Z AUTO 23002KT 0200 R16R/0700VP2000D R16L/0450V0750N FG NSC 12/12 Q1017 BECMG 8000 NSW RMK A3005
Conditions at: RJAA (NARITA INTL , JP) observed 1700 UTC 17 May 2022
Temperature: 12.0°C (54°F)
Dewpoint: 12.0°C (54°F) [RH = 100%]
Pressure (altimeter): 30.03 inches Hg (1017.0 mb)
Winds: from the SW (230 degrees) at 2 MPH (2 knots; 1.0 m/s)
Visibility: 0.12 miles (0.19 km)
Ceiling: at least 12,000 feet AGL
Clouds: sky clear below 12,000 feet AGL
Weather: FG  (fog)

METAR text: RJAA 171651Z AUTO 22002KT 0500 R16R/P2000N R16L/0500V1700U FG NSC 12/12 Q1017 RMK A3005
Conditions at: RJAA (NARITA INTL , JP) observed 1651 UTC 17 May 2022
Temperature: 12.0°C (54°F)
Dewpoint: 12.0°C (54°F) [RH = 100%]
Pressure (altimeter): 30.03 inches Hg (1017.0 mb)
Winds: from the SW (220 degrees) at 2 MPH (2 knots; 1.0 m/s)
Visibility: 0.31 miles (0.50 km)
Ceiling: at least 12,000 feet AGL
Clouds: sky clear below 12,000 feet AGL
Weather: FG  (fog)

METAR text: RJAA 171650Z AUTO 22002KT 0400 R16R/P2000N R16L/0500VP2000N FG NSC 12/12 Q1017 RMK A3005
Conditions at: RJAA (NARITA INTL , JP) observed 1650 UTC 17 May 2022
Temperature: 12.0°C (54°F)
Dewpoint: 12.0°C (54°F) [RH = 100%]
Pressure (altimeter): 30.03 inches Hg (1017.0 mb)
Winds: from the SW (220 degrees) at 2 MPH (2 knots; 1.0 m/s)
Visibility: 0.25 miles (0.40 km)
Ceiling: at least 12,000 feet AGL
Clouds: sky clear below 12,000 feet AGL
Weather: FG  (fog)

METAR text: RJAA 171649Z AUTO 22002KT 0300 R16R/P2000N R16L/0500VP2000D FG NSC 12/12 Q1017 RMK A3005
Conditions at: RJAA (NARITA INTL , JP) observed 1649 UTC 17 May 2022
Temperature: 12.0°C (54°F)
Dewpoint: 12.0°C (54°F) [RH = 100%]
Pressure (altimeter): 30.03 inches Hg (1017.0 mb)
Winds: from the SW (220 degrees) at 2 MPH (2 knots; 1.0 m/s)
Visibility: 0.19 miles (0.31 km)
Ceiling: at least 12,000 feet AGL
Clouds: sky clear below 12,000 feet AGL
Weather: FG  (fog)

METAR text: RJAA 171644Z AUTO VRB01KT 0500 R16R/P2000N R16L/0500VP2000D FG NSC 13/13 Q1017 RMK A3005
Conditions at: RJAA (NARITA INTL , JP) observed 1644 UTC 17 May 2022
Temperature: 13.0°C (55°F)
Dewpoint: 13.0°C (55°F) [RH = 100%]
Pressure (altimeter): 30.03 inches Hg (1017.0 mb)
Winds: variable direction winds at 1 MPH (1 knots; 0.5 m/s)
Visibility: 0.31 miles (0.50 km)
Ceiling: at least 12,000 feet AGL
Clouds: sky clear below 12,000 feet AGL
Weather: FG  (fog)

METAR text: RJAA 171643Z AUTO VRB01KT 0600 R16R/P2000N R16L/0600VP2000D FG NSC 13/13 Q1017 RMK A3005
Conditions at: RJAA (NARITA INTL , JP) observed 1643 UTC 17 May 2022
Temperature: 13.0°C (55°F)
Dewpoint: 13.0°C (55°F) [RH = 100%]
Pressure (altimeter): 30.03 inches Hg (1017.0 mb)
Winds: variable direction winds at 1 MPH (1 knots; 0.5 m/s)
Visibility: 0.37 miles (0.60 km)
Ceiling: at least 12,000 feet AGL
Clouds: sky clear below 12,000 feet AGL
Weather: FG  (fog)

METAR text: RJAA 171634Z AUTO 17001KT 0200 R16R/0550VP2000U R16L/1300VP2000U FG NSC 13/13 Q1017 RMK A3004
Conditions at: RJAA (NARITA INTL , JP) observed 1634 UTC 17 May 2022
Temperature: 13.0°C (55°F)
Dewpoint: 13.0°C (55°F) [RH = 100%]
Pressure (altimeter): 30.03 inches Hg (1017.0 mb)
Winds: from the S (170 degrees) at 1 MPH (1 knots; 0.5 m/s)
Visibility: 0.12 miles (0.19 km)
Ceiling: at least 12,000 feet AGL
Clouds: sky clear below 12,000 feet AGL
Weather: FG  (fog)

METAR text: RJAA 171631Z AUTO 16001KT 0200 R16R/0450VP2000U R16L/1300VP2000U FG NSC 13/13 Q1017 RMK A3004
Conditions at: RJAA (NARITA INTL , JP) observed 1631 UTC 17 May 2022
Temperature: 13.0°C (55°F)
Dewpoint: 13.0°C (55°F) [RH = 100%]
Pressure (altimeter): 30.03 inches Hg (1017.0 mb)
Winds: from the SSE (160 degrees) at 1 MPH (1 knots; 0.5 m/s)
Visibility: 0.12 miles (0.19 km)
Ceiling: at least 12,000 feet AGL
Clouds: sky clear below 12,000 feet AGL
Weather: FG  (fog)

METAR text: RJAA 171630Z AUTO VRB01KT 0200 R16R/0450VP2000U R16L/1300VP2000N FG NSC 13/13 Q1017 BECMG 8000 NSW RMK A3004
Conditions at: RJAA (NARITA INTL , JP) observed 1630 UTC 17 May 2022
Temperature: 13.0°C (55°F)
Dewpoint: 13.0°C (55°F) [RH = 100%]
Pressure (altimeter): 30.03 inches Hg (1017.0 mb)
Winds: variable direction winds at 1 MPH (1 knots; 0.5 m/s)
Visibility: 0.12 miles (0.19 km)
Ceiling: at least 12,000 feet AGL
Clouds: sky clear below 12,000 feet AGL
Weather: FG  (fog)

METAR text: RJAA 171629Z AUTO VRB01KT 0200 R16R/0450VP2000U R16L/1300VP2000D FG NSC 13/13 Q1017 RMK A3004
Conditions at: RJAA (NARITA INTL , JP) observed 1629 UTC 17 May 2022
Temperature: 13.0°C (55°F)
Dewpoint: 13.0°C (55°F) [RH = 100%]
Pressure (altimeter): 30.03 inches Hg (1017.0 mb)
Winds: variable direction winds at 1 MPH (1 knots; 0.5 m/s)
Visibility: 0.12 miles (0.19 km)
Ceiling: at least 12,000 feet AGL
Clouds: sky clear below 12,000 feet AGL
Weather: FG  (fog)

METAR text: RJAA 171625Z AUTO 00000KT 1200 R16R/0450VP2000D R16L/1500VP2000N BR NSC 13/13 Q1017 RMK A3004
Conditions at: RJAA (NARITA INTL , JP) observed 1625 UTC 17 May 2022
Temperature: 13.0°C (55°F)
Dewpoint: 13.0°C (55°F) [RH = 100%]
Pressure (altimeter): 30.03 inches Hg (1017.0 mb)
Winds: calm
Visibility: 0.75 miles (1.21 km)
Ceiling: at least 12,000 feet AGL
Clouds: sky clear below 12,000 feet AGL
Weather: BR  (mist)

Forecast for: RJAA (NARITA INTL , JP)
Text: TAF RJAA 171105Z 1712/1818 04004KT 9999 FEW010 SCT030
Forecast period: 1200 UTC 17 May 2022 to 0300 UTC 18 May 2022
Forecast type: FROM: standard forecast or significant change
Winds: from the NE (40 degrees) at 5 MPH (4 knots; 2.1 m/s)
Visibility: 6 or more miles (10+ km)
Ceiling: at least 12,000 feet AGL
Clouds: few clouds at 1000 feet AGL
scattered clouds at 3000 feet AGL
Weather: no significant weather forecast for this period
Text: TEMPO 1718/1722 2000 BR FEW004 BKN008
Forecast period: 1800 to 2200 UTC 17 May 2022
Forecast type: TEMPORARY: The following changes expected for less than half the time period
Visibility: 1.24 miles (2.00 km)
Ceiling: 800 feet AGL
Clouds: few clouds at 400 feet AGL
broken clouds at 800 feet AGL
Weather: BR  (mist)
Text: BECMG 1803/1806 16010KT
Forecast period: 0300 to 1200 UTC 18 May 2022
Forecast type: BECOMING: Conditions expected to become as follows by 0600 UTC 18 May 2022
Winds: from the SSE (160 degrees) at 12 MPH (10 knots; 5.1 m/s)
Visibility: 6 or more miles (10+ km)
Ceiling: at least 12,000 feet AGL
Clouds: few clouds at 1000 feet AGL
scattered clouds at 3000 feet AGL
Weather: no significant weather forecast for this period
Text: BECMG 1812/1815 02004KT
Forecast period: 1200 to 1800 UTC 18 May 2022
Forecast type: BECOMING: Conditions expected to become as follows by 1500 UTC 18 May 2022
Winds: from the NNE (20 degrees) at 5 MPH (4 knots; 2.1 m/s)
Visibility: 6 or more miles (10+ km)
Ceiling: at least 12,000 feet AGL
Clouds: few clouds at 1000 feet AGL
scattered clouds at 3000 feet AGL
Weather: no significant weather forecast for this period